African Juniper — D5CB8 — position and weather

sailwx.info

Track history (hours):
 
Tides and Currents Weather Stations Pressure Air Temp Water Temp Dewpoint Dewpoint Depression Visibility Wind Speed Wind Dir Waves Ship Positions

African Juniper

Last reported at 2017-Nov-18 23:24 UTC. Time now 2017-Nov-21 02:52 UTC.
Position N 53°08' E 004°29'.

Length 140 m; draft 5.9 m.

Type: Cargo ship. MMSI: 636015658.

Date/timePositionNaut miles runAvg speedWind from/ knotsBaromVisibWave heightAir tempDewpointWater temp
2017-Nov-18 23:24N 53°08' E 004°29'3 8.2
2017-Nov-18 22:59N 53°05' E 004°26'4 8.2
2017-Nov-18 22:27N 53°02' E 004°23'4 7.5
2017-Nov-18 21:56N 52°58' E 004°20'3 7.8
2017-Nov-18 21:30N 52°55' E 004°17'5 8.1
2017-Nov-18 20:57N 52°51' E 004°14'4 7.9
2017-Nov-18 20:29N 52°48' E 004°11'9 9.2
2017-Nov-18 19:30N 52°41' E 004°01'8912.4
2017-Nov-18 12:16N 51°35' E 002°24'413.9
2017-Nov-18 12:00N 51°32' E 002°19'713.4
2017-Nov-18 11:30N 51°27' E 002°13'713.1
2017-Nov-18 11:00N 51°21' E 002°10'713.1
2017-Nov-18 10:30N 51°15' E 002°05'713.3
2017-Nov-18 10:01N 51°11' E 001°56'612.8
2017-Nov-18 09:31N 51°07' E 001°48'612.2
2017-Nov-18 09:01N 51°03' E 001°41'611.1
2017-Nov-18 08:30N 50°59' E 001°35'510.4
2017-Nov-18 08:00N 50°54' E 001°30'13 9.9
2017-Nov-18 06:40N 50°43' E 001°22'210.5
2017-Nov-18 06:29N 50°41' E 001°19'3310.8
2017-Nov-18 03:24N 50°26' E 000°33'611.3
2017-Nov-18 02:50N 50°24' E 000°23'511.2
2017-Nov-18 02:24N 50°23' E 000°16'411.1
2017-Nov-18 02:00N 50°22' E 000°09'611.2
2017-Nov-18 01:30N 50°20' E 000°01'611.2
2017-Nov-18 01:00N 50°18' W 000°07'611.2
2017-Nov-18 00:30N 50°17' W 000°16'3512.4
2017-Nov-17 21:40N 50°08' W 001°09'314.6
2017-Nov-17 21:29N 50°07' W 001°13'714.8
2017-Nov-17 21:00N 50°05' W 001°24'815.4
2017-Nov-17 20:30N 50°03' W 001°35'815.8
2017-Nov-17 20:00N 50°01' W 001°47'816.2
2017-Nov-17 19:31N 49°59' W 001°59'3215.0
2017-Nov-17 17:24N 49°50' W 002°46'1313.6
2017-Nov-17 16:25N 49°44' W 003°05'613.2
2017-Nov-17 15:57N 49°41' W 003°13'18411.4
2017-Nov-16 23:45N 47°39' W 006°43'712.3
2017-Nov-16 23:12N 47°34' W 006°49'3311.6
2017-Nov-16 20:20N 47°06' W 007°17'411.2
2017-Nov-16 20:00N 47°03' W 007°19'  
2017-Nov-13 01:00N 30°26' W 014°43'2511.4
2017-Nov-12 22:49N 30°02' W 014°50'311.3
2017-Nov-12 22:30N 29°58' W 014°51'1011.3
2017-Nov-12 21:39N 29°49' W 014°54'211.1
2017-Nov-12 21:30N 29°47' W 014°54'611.2
2017-Nov-12 21:00N 29°42' W 014°56'1411.3
2017-Nov-12 19:45N 29°28' W 014°60'3011.4
2017-Nov-12 17:09N 28°60' W 015°09'211.4
2017-Nov-12 17:00N 28°58' W 015°09'611.5
2017-Nov-12 16:30N 28°52' W 015°11'611.8
2017-Nov-12 16:00N 28°47' W 015°12'611.8
2017-Nov-12 15:30N 28°41' W 015°14'611.6
2017-Nov-12 15:00N 28°35' W 015°16'611.7
2017-Nov-12 14:30N 28°30' W 015°18'611.6
2017-Nov-12 14:00N 28°24' W 015°19'611.5
2017-Nov-12 13:30N 28°19' W 015°21'611.6
2017-Nov-12 13:00N 28°13' W 015°22'4 7.6
2017-Nov-12 12:30N 28°09' W 015°23'2 3.8
2017-Nov-12 12:00N 28°07' W 015°22'4 7.3
2017-Nov-12 11:30N 28°04' W 015°20'611.4
2017-Nov-12 11:00N 27°60' W 015°16'510.8
2017-Nov-12 10:30N 27°54' W 015°16'510.9
2017-Nov-12 10:00N 27°49' W 015°16'611.4
2017-Nov-12 09:30N 27°43' W 015°16'611.7
2017-Nov-12 09:00N 27°37' W 015°16'20410.5
2017-Nov-11 13:37N 24°35' W 016°59'1 9.1
2017-Nov-11 13:30N 24°34' W 016°59'6 9.9
2017-Nov-11 12:52N 24°28' W 017°02'410.2
2017-Nov-11 12:27N 24°25' W 017°05'7310.3
2017-Nov-11 05:23N 23°16' W 017°31'810.8
2017-Nov-11 04:36N 23°08' W 017°33'110.8
2017-Nov-11 04:30N 23°07' W 017°33'711.1
2017-Nov-11 03:54N 23°00' W 017°35'410.9
2017-Nov-11 03:30N 22°56' W 017°36'13011.1
2017-Nov-10 15:52N 20°48' W 018°00'1611.3
2017-Nov-10 14:28N 20°32' W 018°01'  
Track history (hours):
 
Tides and Currents Weather Stations Pressure Air Temp Water Temp Dewpoint Dewpoint Depression Visibility Wind Speed Wind Dir Waves Ship Positions

African Juniper

Last reported at 2017-Nov-18 23:24 UTC. Time now 2017-Nov-21 02:52 UTC.
Position N 53°08' E 004°29'.

Length 140 m; draft 5.9 m.

Type: Cargo ship. MMSI: 636015658.

Date/timePositionNaut miles runAvg speedWind from/ knotsBaromVisibWave heightAir tempDewpointWater temp
2017-Nov-18 23:24N 53°08' E 004°29'3 8.2
2017-Nov-18 22:59N 53°05' E 004°26'4 8.2
2017-Nov-18 22:27N 53°02' E 004°23'4 7.5
2017-Nov-18 21:56N 52°58' E 004°20'3 7.8
2017-Nov-18 21:30N 52°55' E 004°17'5 8.1
2017-Nov-18 20:57N 52°51' E 004°14'4 7.9
2017-Nov-18 20:29N 52°48' E 004°11'9 9.2
2017-Nov-18 19:30N 52°41' E 004°01'8912.4
2017-Nov-18 12:16N 51°35' E 002°24'413.9
2017-Nov-18 12:00N 51°32' E 002°19'713.4
2017-Nov-18 11:30N 51°27' E 002°13'713.1
2017-Nov-18 11:00N 51°21' E 002°10'713.1
2017-Nov-18 10:30N 51°15' E 002°05'713.3
2017-Nov-18 10:01N 51°11' E 001°56'612.8
2017-Nov-18 09:31N 51°07' E 001°48'612.2
2017-Nov-18 09:01N 51°03' E 001°41'611.1
2017-Nov-18 08:30N 50°59' E 001°35'510.4
2017-Nov-18 08:00N 50°54' E 001°30'13 9.9
2017-Nov-18 06:40N 50°43' E 001°22'210.5
2017-Nov-18 06:29N 50°41' E 001°19'3310.8
2017-Nov-18 03:24N 50°26' E 000°33'611.3
2017-Nov-18 02:50N 50°24' E 000°23'511.2
2017-Nov-18 02:24N 50°23' E 000°16'411.1
2017-Nov-18 02:00N 50°22' E 000°09'611.2
2017-Nov-18 01:30N 50°20' E 000°01'611.2
2017-Nov-18 01:00N 50°18' W 000°07'611.2
2017-Nov-18 00:30N 50°17' W 000°16'3512.4
2017-Nov-17 21:40N 50°08' W 001°09'314.6
2017-Nov-17 21:29N 50°07' W 001°13'714.8
2017-Nov-17 21:00N 50°05' W 001°24'815.4
2017-Nov-17 20:30N 50°03' W 001°35'815.8
2017-Nov-17 20:00N 50°01' W 001°47'816.2
2017-Nov-17 19:31N 49°59' W 001°59'3215.0
2017-Nov-17 17:24N 49°50' W 002°46'1313.6
2017-Nov-17 16:25N 49°44' W 003°05'613.2
2017-Nov-17 15:57N 49°41' W 003°13'18411.4
2017-Nov-16 23:45N 47°39' W 006°43'712.3
2017-Nov-16 23:12N 47°34' W 006°49'3311.6
2017-Nov-16 20:20N 47°06' W 007°17'411.2
2017-Nov-16 20:00N 47°03' W 007°19'  
2017-Nov-13 01:00N 30°26' W 014°43'2511.4
2017-Nov-12 22:49N 30°02' W 014°50'311.3
2017-Nov-12 22:30N 29°58' W 014°51'1011.3
2017-Nov-12 21:39N 29°49' W 014°54'211.1
2017-Nov-12 21:30N 29°47' W 014°54'611.2
2017-Nov-12 21:00N 29°42' W 014°56'1411.3
2017-Nov-12 19:45N 29°28' W 014°60'3011.4
2017-Nov-12 17:09N 28°60' W 015°09'211.4
2017-Nov-12 17:00N 28°58' W 015°09'611.5
2017-Nov-12 16:30N 28°52' W 015°11'611.8
2017-Nov-12 16:00N 28°47' W 015°12'611.8
2017-Nov-12 15:30N 28°41' W 015°14'611.6
2017-Nov-12 15:00N 28°35' W 015°16'611.7
2017-Nov-12 14:30N 28°30' W 015°18'611.6
2017-Nov-12 14:00N 28°24' W 015°19'611.5
2017-Nov-12 13:30N 28°19' W 015°21'611.6
2017-Nov-12 13:00N 28°13' W 015°22'4 7.6
2017-Nov-12 12:30N 28°09' W 015°23'2 3.8
2017-Nov-12 12:00N 28°07' W 015°22'4 7.3
2017-Nov-12 11:30N 28°04' W 015°20'611.4
2017-Nov-12 11:00N 27°60' W 015°16'510.8
2017-Nov-12 10:30N 27°54' W 015°16'510.9
2017-Nov-12 10:00N 27°49' W 015°16'611.4
2017-Nov-12 09:30N 27°43' W 015°16'611.7
2017-Nov-12 09:00N 27°37' W 015°16'20410.5
2017-Nov-11 13:37N 24°35' W 016°59'1 9.1
2017-Nov-11 13:30N 24°34' W 016°59'6 9.9
2017-Nov-11 12:52N 24°28' W 017°02'410.2
2017-Nov-11 12:27N 24°25' W 017°05'7310.3
2017-Nov-11 05:23N 23°16' W 017°31'810.8
2017-Nov-11 04:36N 23°08' W 017°33'110.8
2017-Nov-11 04:30N 23°07' W 017°33'711.1
2017-Nov-11 03:54N 23°00' W 017°35'410.9
2017-Nov-11 03:30N 22°56' W 017°36'13011.1
2017-Nov-10 15:52N 20°48' W 018°00'1611.3
2017-Nov-10 14:28N 20°32' W 018°01'  

Dump ship's entire track history